createdAt,value
2017-01-26T00:00:18.206Z,1024.95
2017-01-26T00:01:29.595Z,1024.92
2017-01-26T00:02:40.981Z,1024.95
2017-01-26T00:03:52.386Z,1024.89
2017-01-26T00:05:04.226Z,1024.89
2017-01-26T00:06:15.614Z,1024.9
2017-01-26T00:07:27.034Z,1024.91
2017-01-26T00:08:38.430Z,1024.88
2017-01-26T00:09:49.823Z,1024.88
2017-01-26T00:11:01.270Z,1024.86
2017-01-26T00:12:12.661Z,1024.86
2017-01-26T00:13:24.050Z,1024.81
2017-01-26T00:14:35.443Z,1024.79
2017-01-26T00:15:46.837Z,1024.78
2017-01-26T00:16:58.276Z,1024.78
2017-01-26T00:18:09.699Z,1024.81
2017-01-26T00:19:21.118Z,1024.81
2017-01-26T00:20:32.509Z,1024.78
2017-01-26T00:21:44.106Z,1024.71
2017-01-26T00:22:55.555Z,1024.73
2017-01-26T00:24:07.158Z,1024.73
2017-01-26T00:25:18.545Z,1024.71
2017-01-26T00:26:30.147Z,1024.72
2017-01-26T00:27:41.548Z,1024.7
2017-01-26T00:28:52.988Z,1024.7
2017-01-26T00:30:04.590Z,1024.69
2017-01-26T00:31:15.979Z,1024.7
2017-01-26T00:32:27.397Z,1024.65
2017-01-26T00:33:38.801Z,1024.67
2017-01-26T00:34:50.251Z,1024.65
2017-01-26T00:36:01.647Z,1024.63
2017-01-26T00:37:13.047Z,1024.58
2017-01-26T00:38:24.449Z,1024.58
2017-01-26T00:39:36.238Z,1024.56
2017-01-26T00:40:47.673Z,1024.55
2017-01-26T00:41:59.278Z,1024.54
2017-01-26T00:43:10.671Z,1024.52
2017-01-26T00:44:22.089Z,1024.54
2017-01-26T00:45:33.677Z,1024.5
2017-01-26T00:46:45.129Z,1024.5
2017-01-26T00:47:56.523Z,1024.48
2017-01-26T00:49:07.917Z,1024.44
2017-01-26T00:50:19.329Z,1024.42
2017-01-26T00:51:30.726Z,1024.36
2017-01-26T00:52:42.161Z,1024.37
2017-01-26T00:53:53.553Z,1024.39
2017-01-26T00:55:05.175Z,1024.4
2017-01-26T00:56:16.566Z,1024.39
2017-01-26T00:57:27.961Z,1024.38
2017-01-26T00:58:39.435Z,1024.36
2017-01-26T00:59:51.026Z,1024.32
2017-01-26T01:01:02.425Z,1024.37
2017-01-26T01:02:13.818Z,1024.39
2017-01-26T01:03:25.206Z,1024.33
2017-01-26T01:04:36.651Z,1024.31
2017-01-26T01:05:48.046Z,1024.31
2017-01-26T01:06:59.648Z,1024.28
2017-01-26T01:08:11.042Z,1024.27
2017-01-26T01:09:22.439Z,1024.24
2017-01-26T01:10:33.879Z,1024.26
2017-01-26T01:11:45.473Z,1024.25
2017-01-26T01:12:56.869Z,1024.23
2017-01-26T01:14:08.268Z,1024.2
2017-01-26T01:15:19.669Z,1024.22
2017-01-26T01:16:31.114Z,1024.17
2017-01-26T01:17:42.504Z,1024.12
2017-01-26T01:18:53.900Z,1024.07
2017-01-26T01:20:05.292Z,1024.12
2017-01-26T01:21:16.894Z,1024.14
2017-01-26T01:22:28.534Z,1024.11
2017-01-26T01:23:39.961Z,1024.12
2017-01-26T01:24:51.355Z,1024.12
2017-01-26T01:26:02.751Z,1024.14
2017-01-26T01:27:14.150Z,1024.13
2017-01-26T01:28:25.597Z,1024.09
2017-01-26T01:29:36.989Z,1024.13
2017-01-26T01:30:48.379Z,1024.07
2017-01-26T01:31:59.971Z,1024.12
2017-01-26T01:33:11.363Z,1024.15
2017-01-26T01:34:22.802Z,1024.13
2017-01-26T01:35:34.197Z,1024.16
2017-01-26T01:36:45.619Z,1024.14
2017-01-26T01:37:57.030Z,1024.13
2017-01-26T01:39:08.633Z,1024.09
2017-01-26T01:40:20.072Z,1024.07
2017-01-26T01:41:31.465Z,1024.12
2017-01-26T01:42:42.858Z,1024.08
2017-01-26T01:43:54.448Z,1024.07
2017-01-26T01:45:05.851Z,1024.03
2017-01-26T01:46:17.295Z,1024.08
2017-01-26T01:47:28.690Z,1024.03
2017-01-26T01:48:40.107Z,1024
2017-01-26T01:49:51.495Z,1023.98
2017-01-26T01:51:02.889Z,1023.97
2017-01-26T01:52:14.535Z,1023.91
2017-01-26T01:53:25.926Z,1023.93
2017-01-26T01:54:37.549Z,1023.92
2017-01-26T01:55:48.940Z,1023.91
2017-01-26T01:57:00.332Z,1023.91
2017-01-26T01:58:11.789Z,1023.95
2017-01-26T01:59:23.375Z,1023.95
2017-01-26T02:00:34.767Z,1023.96
2017-01-26T02:01:46.163Z,1023.92
2017-01-26T02:02:57.552Z,1023.89
2017-01-26T02:04:08.992Z,1023.91
2017-01-26T02:05:20.382Z,1023.91
2017-01-26T02:06:31.775Z,1023.86
2017-01-26T02:07:43.164Z,1023.84
2017-01-26T02:08:54.556Z,1023.87
2017-01-26T02:10:06.001Z,1023.83
2017-01-26T02:11:17.404Z,1023.84
2017-01-26T02:12:28.801Z,1023.83
2017-01-26T02:13:40.224Z,1023.78
2017-01-26T02:14:51.628Z,1023.76
2017-01-26T02:16:03.272Z,1023.76
2017-01-26T02:17:14.667Z,1023.7
2017-01-26T02:18:26.066Z,1023.71
2017-01-26T02:19:37.460Z,1023.73
2017-01-26T02:20:49.059Z,1023.74
2017-01-26T02:22:00.703Z,1023.72
2017-01-26T02:23:12.084Z,1023.76
2017-01-26T02:24:23.476Z,1023.69
2017-01-26T02:25:35.066Z,1023.67
2017-01-26T02:26:46.464Z,1023.67
2017-01-26T02:27:57.908Z,1023.63
2017-01-26T02:29:09.299Z,1023.65
2017-01-26T02:30:20.691Z,1023.68
2017-01-26T02:31:32.284Z,1023.66
2017-01-26T02:32:43.676Z,1023.67
2017-01-26T02:33:55.113Z,1023.64
2017-01-26T02:35:06.506Z,1023.67
2017-01-26T02:36:18.299Z,1023.59
2017-01-26T02:37:29.678Z,1023.61
2017-01-26T02:38:41.280Z,1023.6
2017-01-26T02:39:52.924Z,1023.57
2017-01-26T02:41:04.326Z,1023.61
2017-01-26T02:42:15.719Z,1023.64
2017-01-26T02:43:27.112Z,1023.6
2017-01-26T02:44:38.713Z,1023.61
2017-01-26T02:45:50.155Z,1023.61
2017-01-26T02:47:01.538Z,1023.64
2017-01-26T02:48:12.933Z,1023.61
2017-01-26T02:49:24.322Z,1023.62
2017-01-26T02:50:35.914Z,1023.66
2017-01-26T02:51:47.348Z,1023.61
2017-01-26T02:52:58.740Z,1023.63
2017-01-26T02:54:10.131Z,1023.64
2017-01-26T02:55:21.724Z,1023.66
2017-01-26T02:56:33.118Z,1023.73
2017-01-26T02:57:44.554Z,1023.66
2017-01-26T02:58:55.948Z,1023.71
2017-01-26T03:00:07.545Z,1023.7
2017-01-26T03:01:18.934Z,1023.67
2017-01-26T03:02:30.324Z,1023.69
2017-01-26T03:03:41.759Z,1023.69
2017-01-26T03:04:53.152Z,1023.64
2017-01-26T03:06:04.741Z,1023.61
2017-01-26T03:07:16.156Z,1023.66
2017-01-26T03:08:27.551Z,1023.63
2017-01-26T03:09:39.002Z,1023.6
2017-01-26T03:10:50.596Z,1023.59
2017-01-26T03:12:02.002Z,1023.52
2017-01-26T03:13:13.393Z,1023.52
2017-01-26T03:14:24.786Z,1023.45
2017-01-26T03:15:36.239Z,1023.46
2017-01-26T03:16:47.635Z,1023.48
2017-01-26T03:17:59.033Z,1023.5
2017-01-26T03:19:10.642Z,1023.46
2017-01-26T03:20:22.054Z,1023.49
2017-01-26T03:21:33.493Z,1023.47
2017-01-26T03:22:45.082Z,1023.47
2017-01-26T03:23:56.469Z,1023.49
2017-01-26T03:25:07.860Z,1023.49
2017-01-26T03:26:19.253Z,1023.5
2017-01-26T03:27:30.696Z,1023.46
2017-01-26T03:28:42.097Z,1023.46
2017-01-26T03:29:53.490Z,1023.5
2017-01-26T03:31:04.885Z,1023.46
2017-01-26T03:32:16.277Z,1023.39
2017-01-26T03:33:27.709Z,1023.41
2017-01-26T03:34:39.307Z,1023.39
2017-01-26T03:35:50.696Z,1023.38
2017-01-26T03:37:02.090Z,1023.35
2017-01-26T03:38:13.478Z,1023.34
2017-01-26T03:39:24.926Z,1023.32
2017-01-26T03:40:36.523Z,1023.32
2017-01-26T03:41:47.913Z,1023.31
2017-01-26T03:42:59.304Z,1023.29
2017-01-26T03:44:10.702Z,1023.32
2017-01-26T03:45:22.141Z,1023.33
2017-01-26T03:46:33.532Z,1023.29
2017-01-26T03:47:44.919Z,1023.3
2017-01-26T03:48:56.309Z,1023.29
2017-01-26T03:50:07.707Z,1023.25
2017-01-26T03:51:19.145Z,1023.23
2017-01-26T03:52:30.566Z,1023.24
2017-01-26T03:53:41.961Z,1023.22
2017-01-26T03:54:53.351Z,1023.2
2017-01-26T03:56:04.740Z,1023.21
2017-01-26T03:57:16.210Z,1023.22
2017-01-26T03:58:27.598Z,1023.21
2017-01-26T03:59:39.192Z,1023.2
2017-01-26T04:00:50.777Z,1023.18
2017-01-26T04:02:02.169Z,1023.16
2017-01-26T04:03:13.606Z,1023.18
2017-01-26T04:04:25.245Z,1023.15
2017-01-26T04:05:36.658Z,1023.16
2017-01-26T04:06:48.051Z,1023.16
2017-01-26T04:07:59.646Z,1023.11
2017-01-26T04:09:11.090Z,1023.08
2017-01-26T04:10:22.486Z,1023.04
2017-01-26T04:11:33.896Z,1023.01
2017-01-26T04:12:45.285Z,1023.05
2017-01-26T04:13:56.678Z,1022.99
2017-01-26T04:15:08.117Z,1023.03
2017-01-26T04:16:19.513Z,1023.01
2017-01-26T04:17:30.898Z,1023.02
2017-01-26T04:18:42.290Z,1023.05
2017-01-26T04:19:53.679Z,1023.05
2017-01-26T04:21:05.123Z,1023.06
2017-01-26T04:22:16.714Z,1023.03
2017-01-26T04:23:28.108Z,1023.03
2017-01-26T04:24:39.499Z,1023.05
2017-01-26T04:25:51.083Z,1023.02
2017-01-26T04:27:02.524Z,1022.98
2017-01-26T04:28:13.917Z,1023
2017-01-26T04:29:25.309Z,1022.91
2017-01-26T04:30:36.705Z,1022.99
2017-01-26T04:31:48.092Z,1022.95
2017-01-26T04:32:59.537Z,1022.97
2017-01-26T04:34:10.931Z,1022.96
2017-01-26T04:35:22.319Z,1023
2017-01-26T04:36:33.726Z,1022.97
2017-01-26T04:37:45.115Z,1022.94
2017-01-26T04:38:56.986Z,1022.96
2017-01-26T04:40:08.572Z,1022.97
2017-01-26T04:41:19.964Z,1022.88
2017-01-26T04:42:31.566Z,1022.92
2017-01-26T04:43:42.957Z,1022.91
2017-01-26T04:44:54.400Z,1022.92
2017-01-26T04:46:06.025Z,1022.88
2017-01-26T04:47:17.617Z,1022.84
2017-01-26T04:48:29.003Z,1022.86
2017-01-26T04:49:40.398Z,1022.82
2017-01-26T04:50:51.866Z,1022.86
2017-01-26T04:52:03.262Z,1022.84
2017-01-26T04:53:14.656Z,1022.8
2017-01-26T04:54:26.045Z,1022.82
2017-01-26T04:55:37.442Z,1022.75
2017-01-26T04:56:48.883Z,1022.73
2017-01-26T04:58:00.275Z,1022.72
2017-01-26T04:59:11.666Z,1022.74
2017-01-26T05:00:23.055Z,1022.76
2017-01-26T05:01:34.477Z,1022.67
2017-01-26T05:02:45.925Z,1022.69
2017-01-26T05:03:57.322Z,1022.67
2017-01-26T05:05:08.711Z,1022.64
2017-01-26T05:06:20.308Z,1022.66
2017-01-26T05:07:31.690Z,1022.61
2017-01-26T05:08:43.540Z,1022.58
2017-01-26T05:09:55.156Z,1022.56
2017-01-26T05:11:06.554Z,1022.59
2017-01-26T05:12:17.944Z,1022.56
2017-01-26T05:13:29.339Z,1022.58
2017-01-26T05:14:40.786Z,1022.54
2017-01-26T05:15:52.178Z,1022.52
2017-01-26T05:17:03.567Z,1022.51
2017-01-26T05:18:15.169Z,1022.54
2017-01-26T05:19:26.556Z,1022.54
2017-01-26T05:20:38.002Z,1022.55
2017-01-26T05:21:49.393Z,1022.52
2017-01-26T05:23:00.787Z,1022.51
2017-01-26T05:24:12.185Z,1022.5
2017-01-26T05:25:23.582Z,1022.48
2017-01-26T05:26:35.261Z,1022.51
2017-01-26T05:27:46.659Z,1022.52
2017-01-26T05:28:58.057Z,1022.47
2017-01-26T05:30:09.658Z,1022.44
2017-01-26T05:31:21.042Z,1022.44
2017-01-26T05:32:32.484Z,1022.38
2017-01-26T05:33:43.885Z,1022.39
2017-01-26T05:34:55.277Z,1022.36
2017-01-26T05:36:06.671Z,1022.35
2017-01-26T05:37:18.271Z,1022.34
2017-01-26T05:38:29.721Z,1022.33
2017-01-26T05:39:41.108Z,1022.27
2017-01-26T05:40:52.499Z,1022.26
2017-01-26T05:42:03.891Z,1022.28
2017-01-26T05:43:15.282Z,1022.27
2017-01-26T05:44:26.927Z,1022.27
2017-01-26T05:45:38.525Z,1022.24
2017-01-26T05:46:49.917Z,1022.25
2017-01-26T05:48:01.335Z,1022.21
2017-01-26T05:49:12.732Z,1022.21
2017-01-26T05:50:24.379Z,1022.22
2017-01-26T05:51:35.802Z,1022.21
2017-01-26T05:52:47.196Z,1022.21
2017-01-26T05:53:58.583Z,1022.24
2017-01-26T05:55:10.001Z,1022.24
2017-01-26T05:56:21.643Z,1022.24
2017-01-26T05:57:33.034Z,1022.26
2017-01-26T05:58:44.627Z,1022.25
2017-01-26T05:59:56.010Z,1022.22
2017-01-26T06:01:07.406Z,1022.23
2017-01-26T06:02:18.847Z,1022.18
2017-01-26T06:03:30.640Z,1022.19
2017-01-26T06:04:42.035Z,1022.18
2017-01-26T06:05:53.420Z,1022.19
2017-01-26T06:07:05.023Z,1022.21
2017-01-26T06:08:16.465Z,1022.2
2017-01-26T06:09:27.885Z,1022.2
2017-01-26T06:10:39.303Z,1022.2
2017-01-26T06:11:50.691Z,1022.21
2017-01-26T06:13:02.081Z,1022.23
2017-01-26T06:14:13.719Z,1022.22
2017-01-26T06:15:25.114Z,1022.24
2017-01-26T06:16:36.513Z,1022.25
2017-01-26T06:17:47.898Z,1022.24
2017-01-26T06:18:59.284Z,1022.29
2017-01-26T06:20:10.718Z,1022.29
2017-01-26T06:21:22.107Z,1022.27
2017-01-26T06:22:33.497Z,1022.22
2017-01-26T06:23:44.886Z,1022.22
2017-01-26T06:24:56.269Z,1022.22
2017-01-26T06:26:07.715Z,1022.28
2017-01-26T06:27:19.139Z,1022.24
2017-01-26T06:28:30.548Z,1022.26
2017-01-26T06:29:41.956Z,1022.23
2017-01-26T06:30:53.350Z,1022.25
2017-01-26T06:32:04.796Z,1022.21
2017-01-26T06:33:16.189Z,1022.26
2017-01-26T06:34:27.989Z,1022.25
2017-01-26T06:35:39.378Z,1022.2
2017-01-26T06:36:50.766Z,1022.23
2017-01-26T06:38:02.245Z,1022.21
2017-01-26T06:39:13.636Z,1022.21
2017-01-26T06:40:25.442Z,1022.2
2017-01-26T06:41:36.835Z,1022.21
2017-01-26T06:42:48.222Z,1022.19
2017-01-26T06:43:59.664Z,1022.18
2017-01-26T06:45:11.058Z,1022.15
2017-01-26T06:46:22.649Z,1022.2
2017-01-26T06:47:34.042Z,1022.1
2017-01-26T06:48:45.458Z,1022.07
2017-01-26T06:49:57.126Z,1022.15
2017-01-26T06:51:08.525Z,1022.13
2017-01-26T06:52:19.942Z,1022.12
2017-01-26T06:53:31.336Z,1022.14
2017-01-26T06:54:42.927Z,1022.11
2017-01-26T06:55:54.372Z,1022.18
2017-01-26T06:57:05.773Z,1022.17
2017-01-26T06:58:17.201Z,1022.17
2017-01-26T06:59:28.586Z,1022.14
2017-01-26T07:00:40.182Z,1022.19
2017-01-26T07:01:51.628Z,1022.2
2017-01-26T07:03:03.014Z,1022.16
2017-01-26T07:04:14.606Z,1022.18
2017-01-26T07:05:26.033Z,1022.21
2017-01-26T07:06:37.429Z,1022.21
2017-01-26T07:07:49.070Z,1022.21
2017-01-26T07:09:00.492Z,1022.19
2017-01-26T07:10:11.882Z,1022.21
2017-01-26T07:11:23.277Z,1022.22
2017-01-26T07:12:34.690Z,1022.23
2017-01-26T07:13:46.132Z,1022.24
2017-01-26T07:14:57.529Z,1022.2
2017-01-26T07:16:08.930Z,1022.23
2017-01-26T07:17:20.317Z,1022.23
2017-01-26T07:18:31.707Z,1022.21
2017-01-26T07:19:43.154Z,1022.22
2017-01-26T07:20:54.544Z,1022.27
2017-01-26T07:22:05.967Z,1022.23
2017-01-26T07:23:17.557Z,1022.24
2017-01-26T07:24:28.944Z,1022.23
2017-01-26T07:25:40.385Z,1022.25
2017-01-26T07:26:51.784Z,1022.25
2017-01-26T07:28:03.382Z,1022.23
2017-01-26T07:29:14.972Z,1022.27
2017-01-26T07:30:26.566Z,1022.28
2017-01-26T07:31:38.008Z,1022.31
2017-01-26T07:32:49.401Z,1022.25
2017-01-26T07:34:00.824Z,1022.28
2017-01-26T07:35:12.424Z,1022.28
2017-01-26T07:36:23.815Z,1022.29
2017-01-26T07:37:35.470Z,1022.3
2017-01-26T07:38:46.865Z,1022.31
2017-01-26T07:39:58.478Z,1022.34
2017-01-26T07:41:09.879Z,1022.34
2017-01-26T07:42:21.474Z,1022.39
2017-01-26T07:43:32.909Z,1022.37
2017-01-26T07:44:44.302Z,1022.41
2017-01-26T07:45:55.728Z,1022.42
2017-01-26T07:47:07.122Z,1022.38
2017-01-26T07:48:18.519Z,1022.4
2017-01-26T07:49:30.018Z,1022.46
2017-01-26T07:50:41.419Z,1022.42
2017-01-26T07:51:52.808Z,1022.43
2017-01-26T07:53:04.407Z,1022.43
2017-01-26T07:54:15.805Z,1022.43
2017-01-26T07:55:27.245Z,1022.47
2017-01-26T07:56:38.845Z,1022.46
2017-01-26T07:57:50.238Z,1022.48
2017-01-26T07:59:01.835Z,1022.43
2017-01-26T08:00:13.430Z,1022.4
2017-01-26T08:01:25.073Z,1022.4
2017-01-26T08:02:36.480Z,1022.36
2017-01-26T08:03:47.879Z,1022.36
2017-01-26T08:04:59.473Z,1022.4
2017-01-26T08:06:11.077Z,1022.31
2017-01-26T08:07:22.532Z,1022.36
2017-01-26T08:08:33.928Z,1022.33
2017-01-26T08:09:45.326Z,1022.31
2017-01-26T08:10:56.738Z,1022.35
2017-01-26T08:12:08.124Z,1022.34
2017-01-26T08:13:19.776Z,1022.33
2017-01-26T08:14:31.165Z,1022.33
2017-01-26T08:15:42.557Z,1022.37
2017-01-26T08:16:53.955Z,1022.32
2017-01-26T08:18:05.349Z,1022.32
2017-01-26T08:19:16.793Z,1022.28
2017-01-26T08:20:28.188Z,1022.35
2017-01-26T08:21:39.587Z,1022.37
2017-01-26T08:22:51.183Z,1022.39
2017-01-26T08:24:02.577Z,1022.39
2017-01-26T08:25:14.019Z,1022.4
2017-01-26T08:26:25.413Z,1022.39
2017-01-26T08:27:36.810Z,1022.39
2017-01-26T08:28:48.206Z,1022.44
2017-01-26T08:29:59.613Z,1022.49
2017-01-26T08:31:11.291Z,1022.48
2017-01-26T08:32:22.693Z,1022.5
2017-01-26T08:33:34.090Z,1022.47
2017-01-26T08:34:45.692Z,1022.47
2017-01-26T08:35:57.090Z,1022.46
2017-01-26T08:37:08.737Z,1022.43
2017-01-26T08:38:20.549Z,1022.4
2017-01-26T08:39:31.951Z,1022.38
2017-01-26T08:40:43.353Z,1022.46
2017-01-26T08:41:54.755Z,1022.44
2017-01-26T08:43:06.203Z,1022.46
2017-01-26T08:44:17.598Z,1022.48
2017-01-26T08:45:28.998Z,1022.49
2017-01-26T08:46:40.397Z,1022.49
2017-01-26T08:47:51.795Z,1022.49
2017-01-26T08:49:03.441Z,1022.48
2017-01-26T08:50:15.051Z,1022.44
2017-01-26T08:51:26.450Z,1022.42
2017-01-26T08:52:37.837Z,1022.45
2017-01-26T08:53:49.463Z,1022.47
2017-01-26T08:55:00.913Z,1022.47
2017-01-26T08:56:12.510Z,1022.41
2017-01-26T08:57:23.906Z,1022.4
2017-01-26T08:58:35.516Z,1022.44
2017-01-26T08:59:46.920Z,1022.44
2017-01-26T09:00:58.367Z,1022.47
2017-01-26T09:02:09.766Z,1022.4
2017-01-26T09:03:21.367Z,1022.38
2017-01-26T09:04:32.772Z,1022.39
2017-01-26T09:05:44.171Z,1022.34
2017-01-26T09:06:55.629Z,1022.36
2017-01-26T09:08:07.030Z,1022.33
2017-01-26T09:09:18.422Z,1022.31
2017-01-26T09:10:30.022Z,1022.32
2017-01-26T09:11:41.424Z,1022.34
2017-01-26T09:12:52.912Z,1022.32
2017-01-26T09:14:04.312Z,1022.3
2017-01-26T09:15:15.713Z,1022.28
2017-01-26T09:16:27.115Z,1022.26
2017-01-26T09:17:38.519Z,1022.25
2017-01-26T09:18:49.976Z,1022.27
2017-01-26T09:20:01.379Z,1022.22
2017-01-26T09:21:12.795Z,1022.22
2017-01-26T09:22:24.195Z,1022.28
2017-01-26T09:23:35.799Z,1022.26
2017-01-26T09:24:47.254Z,1022.24
2017-01-26T09:25:58.855Z,1022.26
2017-01-26T09:27:10.462Z,1022.26
2017-01-26T09:28:21.861Z,1022.31
2017-01-26T09:29:33.264Z,1022.24
2017-01-26T09:30:44.768Z,1022.29
2017-01-26T09:31:56.183Z,1022.32
2017-01-26T09:33:07.807Z,1022.38
2017-01-26T09:34:19.216Z,1022.32
2017-01-26T09:35:30.623Z,1022.29
2017-01-26T09:36:42.281Z,1022.3
2017-01-26T09:37:53.691Z,1022.35
2017-01-26T09:39:05.109Z,1022.35
2017-01-26T09:40:16.522Z,1022.4
2017-01-26T09:41:27.935Z,1022.37
2017-01-26T09:42:39.400Z,1022.34
2017-01-26T09:43:50.809Z,1022.38
2017-01-26T09:45:02.219Z,1022.36
2017-01-26T09:46:13.657Z,1022.33
2017-01-26T09:47:25.266Z,1022.3
2017-01-26T09:48:36.933Z,1022.26
2017-01-26T09:49:48.340Z,1022.22
2017-01-26T09:50:59.750Z,1022.22
2017-01-26T09:52:11.364Z,1022.28
2017-01-26T09:53:22.785Z,1022.22
2017-01-26T09:54:34.259Z,1022.24
2017-01-26T09:55:45.667Z,1022.2
2017-01-26T09:56:57.075Z,1022.24
2017-01-26T09:58:08.696Z,1022.27
2017-01-26T09:59:20.124Z,1022.26
2017-01-26T10:00:31.586Z,1022.26
2017-01-26T10:01:42.992Z,1022.21
2017-01-26T10:02:54.607Z,1022.21
2017-01-26T10:04:06.013Z,1022.22
2017-01-26T10:05:17.415Z,1022.2
2017-01-26T10:06:29.085Z,1022.18
2017-01-26T10:07:40.703Z,1022.18
2017-01-26T10:08:52.117Z,1022.2
2017-01-26T10:10:03.735Z,1022.17
2017-01-26T10:11:15.344Z,1022.17
2017-01-26T10:12:26.796Z,1022.19
2017-01-26T10:13:38.411Z,1022.17
2017-01-26T10:14:49.819Z,1022.18
2017-01-26T10:16:01.434Z,1022.12
2017-01-26T10:17:12.854Z,1022.09
2017-01-26T10:18:24.308Z,1022.07
2017-01-26T10:19:35.718Z,1022.06
2017-01-26T10:20:47.330Z,1022
2017-01-26T10:21:58.735Z,1022.03
2017-01-26T10:23:10.141Z,1022.01
2017-01-26T10:24:21.818Z,1022
2017-01-26T10:25:33.229Z,1021.98
2017-01-26T10:26:44.651Z,1021.95
2017-01-26T10:27:56.266Z,1021.98
2017-01-26T10:29:07.705Z,1021.93
2017-01-26T10:30:19.175Z,1021.89
2017-01-26T10:31:30.592Z,1021.84
2017-01-26T10:32:41.998Z,1021.85
2017-01-26T10:33:53.412Z,1021.92
2017-01-26T10:35:04.829Z,1021.89
2017-01-26T10:36:16.292Z,1021.92
2017-01-26T10:37:27.711Z,1021.87
2017-01-26T10:38:39.333Z,1021.84
2017-01-26T10:39:50.765Z,1021.82
2017-01-26T10:41:02.182Z,1021.77
2017-01-26T10:42:13.653Z,1021.86
2017-01-26T10:43:25.071Z,1021.82
2017-01-26T10:44:36.476Z,1021.82
2017-01-26T10:45:47.889Z,1021.8
2017-01-26T10:46:59.299Z,1021.73
2017-01-26T10:48:10.760Z,1021.77
2017-01-26T10:49:22.166Z,1021.79
2017-01-26T10:50:33.583Z,1021.75
2017-01-26T10:51:44.995Z,1021.77
2017-01-26T10:52:56.437Z,1021.74
2017-01-26T10:54:07.901Z,1021.78
2017-01-26T10:55:19.316Z,1021.75
2017-01-26T10:56:30.734Z,1021.73
2017-01-26T10:57:42.355Z,1021.71
2017-01-26T10:58:53.971Z,1021.75
2017-01-26T11:00:05.431Z,1021.77
2017-01-26T11:01:16.840Z,1021.73
2017-01-26T11:02:28.450Z,1021.75
2017-01-26T11:03:39.872Z,1021.71
2017-01-26T11:04:51.286Z,1021.71
2017-01-26T11:06:02.955Z,1021.75
2017-01-26T11:07:14.566Z,1021.69
2017-01-26T11:08:26.005Z,1021.71
2017-01-26T11:09:37.410Z,1021.74
2017-01-26T11:10:48.817Z,1021.75
2017-01-26T11:12:00.497Z,1021.78
2017-01-26T11:13:12.118Z,1021.7
2017-01-26T11:14:23.531Z,1021.71
2017-01-26T11:15:34.949Z,1021.71
2017-01-26T11:16:46.365Z,1021.67
2017-01-26T11:17:57.825Z,1021.59
2017-01-26T11:19:09.240Z,1021.56
2017-01-26T11:20:20.655Z,1021.54
2017-01-26T11:21:32.296Z,1021.55
2017-01-26T11:22:43.906Z,1021.53
2017-01-26T11:23:55.366Z,1021.51
2017-01-26T11:25:06.787Z,1021.54
2017-01-26T11:26:18.199Z,1021.55
2017-01-26T11:27:29.611Z,1021.51
2017-01-26T11:28:41.024Z,1021.49
2017-01-26T11:29:52.905Z,1021.48
2017-01-26T11:31:04.312Z,1021.54
2017-01-26T11:32:15.730Z,1021.62
2017-01-26T11:33:27.146Z,1021.56
2017-01-26T11:34:38.571Z,1021.55
2017-01-26T11:35:50.036Z,1021.49
2017-01-26T11:37:01.444Z,1021.46
2017-01-26T11:38:12.855Z,1021.42
2017-01-26T11:39:54.891Z,1021.36
2017-01-26T11:41:06.352Z,1021.42
2017-01-26T11:42:17.763Z,1021.38
2017-01-26T11:43:29.167Z,1021.34
2017-01-26T11:44:40.580Z,1021.34
2017-01-26T11:45:52.191Z,1021.31
2017-01-26T11:47:03.674Z,1021.37
2017-01-26T11:48:15.083Z,1021.48
2017-01-26T11:49:26.489Z,1021.58
2017-01-26T11:50:37.887Z,1021.64
2017-01-26T11:51:49.288Z,1021.56
2017-01-26T11:53:00.741Z,1021.54
2017-01-26T11:54:12.193Z,1021.6
2017-01-26T11:55:23.596Z,1021.69
2017-01-26T11:56:35.001Z,1021.58
2017-01-26T11:57:46.413Z,1021.54
2017-01-26T11:58:57.869Z,1021.52
2017-01-26T12:00:09.283Z,1021.52
2017-01-26T12:01:20.685Z,1021.43
2017-01-26T12:02:32.086Z,1021.47
2017-01-26T12:03:43.694Z,1021.53
2017-01-26T12:04:55.145Z,1021.34
2017-01-26T12:06:06.792Z,1021.32
2017-01-26T12:07:18.200Z,1021.38
2017-01-26T12:08:29.606Z,1021.45
2017-01-26T12:09:41.013Z,1021.48
2017-01-26T12:10:52.467Z,1021.46
2017-01-26T12:12:03.871Z,1021.22
2017-01-26T12:13:15.278Z,1021.08
2017-01-26T12:14:26.894Z,1020.98
2017-01-26T12:15:38.310Z,1020.96
2017-01-26T12:16:49.757Z,1020.89
2017-01-26T12:18:01.161Z,1020.83
2017-01-26T12:19:12.569Z,1020.8
2017-01-26T12:20:23.973Z,1020.8
2017-01-26T12:21:35.381Z,1020.82
2017-01-26T12:22:46.833Z,1020.82
2017-01-26T12:23:58.439Z,1020.82
2017-01-26T12:25:09.856Z,1020.79
2017-01-26T12:26:21.256Z,1020.76
2017-01-26T12:27:32.662Z,1020.77
2017-01-26T12:28:44.114Z,1020.77
2017-01-26T12:29:55.517Z,1020.76
2017-01-26T12:31:06.928Z,1020.7
2017-01-26T12:32:18.374Z,1020.65
2017-01-26T12:33:29.785Z,1020.68
2017-01-26T12:34:41.446Z,1020.64
2017-01-26T12:35:52.844Z,1020.69
2017-01-26T12:37:04.443Z,1020.67
2017-01-26T12:38:15.845Z,1020.63
2017-01-26T12:39:27.258Z,1020.59
2017-01-26T12:40:38.733Z,1020.64
2017-01-26T12:41:50.336Z,1020.62
2017-01-26T12:43:01.737Z,1020.57
2017-01-26T12:44:13.134Z,1020.66
2017-01-26T12:45:24.539Z,1020.64
2017-01-26T12:46:36.200Z,1020.63
2017-01-26T12:47:47.608Z,1020.61
2017-01-26T12:48:59.420Z,1020.62
2017-01-26T12:50:10.868Z,1020.53
2017-01-26T12:51:22.485Z,1020.55
2017-01-26T12:52:34.165Z,1020.53
2017-01-26T12:53:45.567Z,1020.53
2017-01-26T12:54:56.971Z,1020.55
2017-01-26T12:56:08.372Z,1020.54
2017-01-26T12:57:19.776Z,1020.51
2017-01-26T12:58:31.260Z,1020.52
2017-01-26T12:59:42.661Z,1020.54
2017-01-26T13:00:54.064Z,1020.51
2017-01-26T13:02:05.474Z,1020.59
2017-01-26T13:03:16.873Z,1020.54
2017-01-26T13:04:28.323Z,1020.56
2017-01-26T13:05:39.718Z,1020.57
2017-01-26T13:06:51.125Z,1020.55
2017-01-26T13:08:02.530Z,1020.56
2017-01-26T13:09:14.787Z,1020.49
2017-01-26T13:10:26.434Z,1020.48
2017-01-26T13:11:37.834Z,1020.52
2017-01-26T13:12:49.231Z,1020.44
2017-01-26T13:14:00.635Z,1020.45
2017-01-26T13:15:12.042Z,1020.46
2017-01-26T13:16:23.498Z,1020.45
2017-01-26T13:17:34.896Z,1020.43
2017-01-26T13:18:46.299Z,1020.44
2017-01-26T13:19:57.695Z,1020.49
2017-01-26T13:21:09.100Z,1020.4
2017-01-26T13:22:20.556Z,1020.43
2017-01-26T13:23:31.962Z,1020.44
2017-01-26T13:24:43.981Z,1020.43
2017-01-26T13:25:55.387Z,1020.39
2017-01-26T13:27:06.989Z,1020.38
2017-01-26T13:28:18.646Z,1020.38
2017-01-26T13:29:30.261Z,1020.33
2017-01-26T13:30:42.067Z,1020.35
2017-01-26T13:31:53.486Z,1020.36
2017-01-26T13:33:04.892Z,1020.27
2017-01-26T13:34:16.749Z,1020.25
2017-01-26T13:35:28.156Z,1020.2
2017-01-26T13:36:39.784Z,1020.18
2017-01-26T13:37:51.188Z,1020.19
2017-01-26T13:39:02.591Z,1020.25
2017-01-26T13:40:14.042Z,1020.23
2017-01-26T13:41:25.645Z,1020.23
2017-01-26T13:42:37.049Z,1020.2
2017-01-26T13:43:48.458Z,1020.2
2017-01-26T13:44:59.864Z,1020.18
2017-01-26T13:46:11.327Z,1020.17
2017-01-26T13:47:22.728Z,1020.16
2017-01-26T13:48:34.132Z,1020.05
2017-01-26T13:49:45.535Z,1020.03
2017-01-26T13:50:57.140Z,1020.04
2017-01-26T13:52:08.994Z,1019.91
2017-01-26T13:53:20.418Z,1019.95
2017-01-26T13:54:31.815Z,1019.92
2017-01-26T13:55:43.433Z,1019.93
2017-01-26T13:56:54.834Z,1019.91
2017-01-26T13:58:06.283Z,1019.84
2017-01-26T13:59:17.688Z,1019.87
2017-01-26T14:00:29.290Z,1019.86
2017-01-26T14:01:40.693Z,1019.84
2017-01-26T14:02:52.092Z,1019.82
2017-01-26T14:04:03.548Z,1019.74
2017-01-26T14:05:15.157Z,1019.72
2017-01-26T14:06:26.561Z,1019.72
2017-01-26T14:07:37.968Z,1019.7
2017-01-26T14:08:49.373Z,1019.75
2017-01-26T14:10:20.679Z,1019.69
2017-01-26T14:11:32.085Z,1019.68
2017-01-26T14:12:43.491Z,1019.71
2017-01-26T14:13:55.114Z,1019.59
2017-01-26T14:15:06.733Z,1019.64
2017-01-26T14:16:18.387Z,1019.63
2017-01-26T14:17:29.796Z,1019.58
2017-01-26T14:18:41.199Z,1019.61
2017-01-26T14:19:52.609Z,1019.54
2017-01-26T14:21:04.012Z,1019.61
2017-01-26T14:22:15.470Z,1019.61
2017-01-26T14:23:27.287Z,1019.53
2017-01-26T14:24:38.694Z,1019.5
2017-01-26T14:25:50.100Z,1019.44
2017-01-26T14:27:01.507Z,1019.46
2017-01-26T14:28:12.955Z,1019.44